createdAt,value
2023-05-18T00:00:13.393Z,4.19
2023-05-18T00:01:13.396Z,4.19
2023-05-18T00:02:13.384Z,4.12
2023-05-18T00:03:13.487Z,4.14
2023-05-18T00:04:13.396Z,4.12
2023-05-18T00:05:13.348Z,4.06
2023-05-18T00:06:13.343Z,3.99
2023-05-18T00:07:13.335Z,4.04
2023-05-18T00:08:13.351Z,4.05
2023-05-18T00:09:13.379Z,4.01
2023-05-18T00:10:13.330Z,4.08
2023-05-18T00:11:13.328Z,4.04
2023-05-18T00:12:13.298Z,4.06
2023-05-18T00:13:13.322Z,3.98
2023-05-18T00:14:13.286Z,3.94
2023-05-18T00:15:13.273Z,3.91
2023-05-18T00:16:13.312Z,4.01
2023-05-18T00:17:13.270Z,3.96
2023-05-18T00:18:13.318Z,3.98
2023-05-18T00:19:13.266Z,3.88
2023-05-18T00:20:13.233Z,4.01
2023-05-18T00:21:13.238Z,3.83
2023-05-18T00:22:13.221Z,3.88
2023-05-18T00:23:13.239Z,3.92
2023-05-18T00:24:13.214Z,3.83
2023-05-18T00:25:13.206Z,3.84
2023-05-18T00:26:13.197Z,3.94
2023-05-18T00:27:13.213Z,3.86
2023-05-18T00:28:13.281Z,3.87
2023-05-18T00:29:13.173Z,3.80
2023-05-18T00:30:13.188Z,3.87
2023-05-18T00:31:13.198Z,3.84
2023-05-18T00:32:13.186Z,3.88
2023-05-18T00:33:13.145Z,3.70
2023-05-18T00:34:13.126Z,3.78
2023-05-18T00:35:13.137Z,3.77
2023-05-18T00:36:13.114Z,3.66
2023-05-18T00:37:13.135Z,3.73
2023-05-18T00:38:13.104Z,3.66
2023-05-18T00:39:13.091Z,3.69
2023-05-18T00:40:13.102Z,3.58
2023-05-18T00:41:13.110Z,3.59
2023-05-18T00:42:13.095Z,3.58
2023-05-18T00:43:13.065Z,3.58
2023-05-18T00:44:13.060Z,3.59
2023-05-18T00:45:13.051Z,3.70
2023-05-18T00:46:13.094Z,3.59
2023-05-18T00:47:13.064Z,3.69
2023-05-18T00:48:13.069Z,3.68
2023-05-18T00:49:13.028Z,3.68
2023-05-18T00:50:13.033Z,3.66
2023-05-18T00:51:13.046Z,3.70
2023-05-18T00:52:12.993Z,3.65
2023-05-18T00:53:12.995Z,3.63
2023-05-18T00:54:12.985Z,3.59
2023-05-18T00:55:12.981Z,3.63
2023-05-18T00:56:13.011Z,3.56
2023-05-18T00:57:12.958Z,3.58
2023-05-18T00:58:12.953Z,3.47
2023-05-18T00:59:12.949Z,3.55
2023-05-18T01:00:12.945Z,3.51
2023-05-18T01:01:12.996Z,3.51
2023-05-18T01:02:12.945Z,3.51
2023-05-18T01:03:13.024Z,3.50
2023-05-18T01:04:12.910Z,3.53
2023-05-18T01:05:12.915Z,3.51
2023-05-18T01:06:12.971Z,3.45
2023-05-18T01:07:12.918Z,3.48
2023-05-18T01:08:12.886Z,3.41
2023-05-18T01:09:12.864Z,3.50
2023-05-18T01:10:12.887Z,3.48
2023-05-18T01:11:12.919Z,3.41
2023-05-18T01:12:12.848Z,3.37
2023-05-18T01:13:12.834Z,3.34
2023-05-18T01:14:12.837Z,3.36
2023-05-18T01:15:12.848Z,3.31
2023-05-18T01:16:12.808Z,3.31
2023-05-18T01:17:12.912Z,3.42
2023-05-18T01:18:12.828Z,3.37
2023-05-18T01:19:12.870Z,3.26
2023-05-18T01:20:12.809Z,3.31
2023-05-18T01:21:12.793Z,3.25
2023-05-18T01:22:12.773Z,3.18
2023-05-18T01:23:12.753Z,3.16
2023-05-18T01:24:12.778Z,3.14
2023-05-18T01:25:12.778Z,3.05
2023-05-18T01:26:12.744Z,3.13
2023-05-18T01:27:12.725Z,3.18
2023-05-18T01:28:12.717Z,3.13
2023-05-18T01:29:12.745Z,3.08
2023-05-18T01:30:12.712Z,3.10
2023-05-18T01:31:12.705Z,3.07
2023-05-18T01:32:12.692Z,3.07
2023-05-18T01:33:12.695Z,2.98
2023-05-18T01:34:12.704Z,2.95
2023-05-18T01:35:12.675Z,3.00
2023-05-18T01:36:12.664Z,2.93
2023-05-18T01:37:12.651Z,3.05
2023-05-18T01:38:12.643Z,2.93
2023-05-18T01:39:12.660Z,3.03
2023-05-18T01:40:12.631Z,2.95
2023-05-18T01:41:12.636Z,2.98
2023-05-18T01:42:12.614Z,3.01
2023-05-18T01:43:12.642Z,2.97
2023-05-18T01:44:12.659Z,3.00
2023-05-18T01:45:12.603Z,3.03
2023-05-18T01:46:12.613Z,2.98
2023-05-18T01:47:12.575Z,2.92
2023-05-18T01:48:12.633Z,2.98
2023-05-18T01:49:12.568Z,2.92
2023-05-18T01:50:12.550Z,2.86
2023-05-18T01:51:12.552Z,2.86
2023-05-18T01:52:12.553Z,2.86
2023-05-18T01:53:12.557Z,2.83
2023-05-18T01:54:12.518Z,2.90
2023-05-18T01:55:12.508Z,2.80
2023-05-18T01:56:12.513Z,2.86
2023-05-18T01:57:12.526Z,2.87
2023-05-18T01:58:12.522Z,2.92
2023-05-18T01:59:12.486Z,2.85
2023-05-18T02:00:12.477Z,2.87
2023-05-18T02:01:12.479Z,2.93
2023-05-18T02:02:12.540Z,2.79
2023-05-18T02:03:12.624Z,2.75
2023-05-18T02:04:12.569Z,2.74
2023-05-18T02:05:12.489Z,2.89
2023-05-18T02:06:12.435Z,2.83
2023-05-18T02:07:12.454Z,2.79
2023-05-18T02:08:12.420Z,2.79
2023-05-18T02:09:12.417Z,2.89
2023-05-18T02:10:12.466Z,2.75
2023-05-18T02:11:12.393Z,2.62
2023-05-18T02:12:12.415Z,2.72
2023-05-18T02:13:12.385Z,2.72
2023-05-18T02:14:12.384Z,2.69
2023-05-18T02:15:12.369Z,2.64
2023-05-18T02:16:12.427Z,2.68
2023-05-18T02:17:12.404Z,2.67
2023-05-18T02:18:12.356Z,2.57
2023-05-18T02:19:12.398Z,2.60
2023-05-18T02:20:12.328Z,2.57
2023-05-18T02:21:12.341Z,2.56
2023-05-18T02:22:12.308Z,2.57
2023-05-18T02:23:12.297Z,2.65
2023-05-18T02:24:12.284Z,2.62
2023-05-18T02:25:12.278Z,2.56
2023-05-18T02:26:12.297Z,2.51
2023-05-18T02:27:12.273Z,2.61
2023-05-18T02:28:12.256Z,2.57
2023-05-18T02:29:12.241Z,2.57
2023-05-18T02:30:14.416Z,2.54
2023-05-18T02:31:12.269Z,2.57
2023-05-18T02:32:12.269Z,2.50
2023-05-18T02:33:12.285Z,2.51
2023-05-18T02:34:12.224Z,2.54
2023-05-18T02:35:12.256Z,2.54
2023-05-18T02:36:12.202Z,2.51
2023-05-18T02:37:12.181Z,2.44
2023-05-18T02:38:12.182Z,2.51
2023-05-18T02:39:12.177Z,2.43
2023-05-18T02:40:12.206Z,2.53
2023-05-18T02:41:12.234Z,2.53
2023-05-18T02:42:12.164Z,2.46
2023-05-18T02:43:12.145Z,2.49
2023-05-18T02:44:12.141Z,2.47
2023-05-18T02:45:12.184Z,2.39
2023-05-18T02:46:12.137Z,2.44
2023-05-18T02:47:12.115Z,2.60
2023-05-18T02:48:12.112Z,2.47
2023-05-18T02:49:12.132Z,2.46
2023-05-18T02:50:12.123Z,2.53
2023-05-18T02:51:12.085Z,2.53
2023-05-18T02:52:12.075Z,2.53
2023-05-18T02:53:12.083Z,2.46
2023-05-18T02:54:12.080Z,2.42
2023-05-18T02:55:12.082Z,2.43
2023-05-18T02:56:12.047Z,2.43
2023-05-18T02:57:12.077Z,2.35
2023-05-18T02:58:12.030Z,2.35
2023-05-18T02:59:12.057Z,2.38
2023-05-18T03:00:12.016Z,2.33
2023-05-18T03:01:12.054Z,2.32
2023-05-18T03:02:12.010Z,2.32
2023-05-18T03:03:12.113Z,2.38
2023-05-18T03:04:12.005Z,2.33
2023-05-18T03:05:11.984Z,2.26
2023-05-18T03:06:11.967Z,2.24
2023-05-18T03:07:11.982Z,2.28
2023-05-18T03:08:11.980Z,2.28
2023-05-18T03:09:11.968Z,2.15
2023-05-18T03:10:11.942Z,2.26
2023-05-18T03:11:11.934Z,2.22
2023-05-18T03:12:11.923Z,2.17
2023-05-18T03:13:11.944Z,2.28
2023-05-18T03:14:11.923Z,2.22
2023-05-18T03:15:11.905Z,2.15
2023-05-18T03:16:11.953Z,2.25
2023-05-18T03:17:11.934Z,2.26
2023-05-18T03:18:11.926Z,2.31
2023-05-18T03:19:11.905Z,2.29
2023-05-18T03:20:11.866Z,2.31
2023-05-18T03:21:11.880Z,2.29
2023-05-18T03:22:11.886Z,2.29
2023-05-18T03:23:11.837Z,2.38
2023-05-18T03:24:11.840Z,2.20
2023-05-18T03:25:11.827Z,2.18
2023-05-18T03:26:11.907Z,2.28
2023-05-18T03:27:11.844Z,2.29
2023-05-18T03:28:11.813Z,2.26
2023-05-18T03:29:11.801Z,2.25
2023-05-18T03:30:11.797Z,2.29
2023-05-18T03:31:11.799Z,2.25
2023-05-18T03:32:11.798Z,2.38
2023-05-18T03:33:11.815Z,2.31
2023-05-18T03:34:11.765Z,2.25
2023-05-18T03:35:11.751Z,2.35
2023-05-18T03:36:11.784Z,2.35
2023-05-18T03:37:11.773Z,2.36
2023-05-18T03:38:11.725Z,2.29
2023-05-18T03:39:11.714Z,2.35
2023-05-18T03:40:11.708Z,2.36
2023-05-18T03:41:11.726Z,2.42
2023-05-18T03:42:11.698Z,2.43
2023-05-18T03:43:11.687Z,2.33
2023-05-18T03:44:11.679Z,2.32
2023-05-18T03:45:11.675Z,2.33
2023-05-18T03:46:11.713Z,2.38
2023-05-18T03:47:11.665Z,2.32
2023-05-18T03:48:11.710Z,2.39
2023-05-18T03:49:11.644Z,2.44
2023-05-18T03:50:11.681Z,2.56
2023-05-18T03:51:11.654Z,2.57
2023-05-18T03:52:11.629Z,2.65
2023-05-18T03:53:11.621Z,2.92
2023-05-18T03:54:11.606Z,2.86
2023-05-18T03:55:11.654Z,2.92
2023-05-18T03:56:11.601Z,3.04
2023-05-18T03:57:11.592Z,2.93
2023-05-18T03:58:11.585Z,2.93
2023-05-18T03:59:11.573Z,2.93
2023-05-18T04:00:11.591Z,3.00
2023-05-18T04:01:11.572Z,3.01
2023-05-18T04:02:11.587Z,3.19
2023-05-18T04:03:11.608Z,3.21
2023-05-18T04:04:11.596Z,3.29
2023-05-18T04:05:11.556Z,3.25
2023-05-18T04:06:11.520Z,3.36
2023-05-18T04:07:12.065Z,3.40
2023-05-18T04:08:11.522Z,3.32
2023-05-18T04:09:11.519Z,3.45
2023-05-18T04:10:11.531Z,3.51
2023-05-18T04:11:11.483Z,3.56
2023-05-18T04:12:11.478Z,3.65
2023-05-18T04:13:11.478Z,3.60
2023-05-18T04:14:11.489Z,3.70
2023-05-18T04:15:11.460Z,3.88
2023-05-18T04:16:11.481Z,3.91
2023-05-18T04:17:11.429Z,4.24
2023-05-18T04:18:12.467Z,4.70
2023-05-18T04:19:11.516Z,5.29
2023-05-18T04:20:11.424Z,5.65
2023-05-18T04:21:11.408Z,5.89
2023-05-18T04:22:11.402Z,6.01
2023-05-18T04:23:11.402Z,5.90
2023-05-18T04:24:11.402Z,5.69
2023-05-18T04:25:11.383Z,5.50
2023-05-18T04:26:11.369Z,5.47
2023-05-18T04:27:11.359Z,5.46
2023-05-18T04:28:11.355Z,5.41
2023-05-18T04:29:11.368Z,5.36
2023-05-18T04:30:11.341Z,5.43
2023-05-18T04:31:11.328Z,5.35
2023-05-18T04:32:11.450Z,5.35
2023-05-18T04:33:11.331Z,5.41
2023-05-18T04:34:11.331Z,5.66
2023-05-18T04:35:11.299Z,5.68
2023-05-18T04:36:11.296Z,5.84
2023-05-18T04:37:11.280Z,6.02
2023-05-18T04:38:11.306Z,6.46
2023-05-18T04:39:11.293Z,6.85
2023-05-18T04:40:11.257Z,7.32
2023-05-18T04:41:11.294Z,7.79
2023-05-18T04:42:11.252Z,8.06
2023-05-18T04:43:11.260Z,8.13
2023-05-18T04:44:11.232Z,8.19
2023-05-18T04:45:11.219Z,8.33
2023-05-18T04:46:11.235Z,8.28
2023-05-18T04:47:11.232Z,8.51
2023-05-18T04:48:11.267Z,8.78
2023-05-18T04:49:11.192Z,9.06
2023-05-18T04:50:11.191Z,8.94
2023-05-18T04:51:11.181Z,8.94
2023-05-18T04:52:11.224Z,9.18
2023-05-18T04:53:11.157Z,8.94
2023-05-18T04:54:11.152Z,8.88
2023-05-18T04:55:11.151Z,8.87
2023-05-18T04:56:11.147Z,8.74
2023-05-18T04:57:11.203Z,8.79
2023-05-18T04:58:11.119Z,8.87
2023-05-18T04:59:11.115Z,8.70
2023-05-18T05:00:11.108Z,8.56
2023-05-18T05:01:11.142Z,8.63
2023-05-18T05:02:11.193Z,8.56
2023-05-18T05:03:11.154Z,8.46
2023-05-18T05:04:11.075Z,8.42
2023-05-18T05:05:11.069Z,8.41
2023-05-18T05:06:11.086Z,8.44
2023-05-18T05:07:11.080Z,8.46
2023-05-18T05:08:11.043Z,8.70
2023-05-18T05:09:11.028Z,8.66
2023-05-18T05:10:11.027Z,8.52
2023-05-18T05:11:11.037Z,8.71
2023-05-18T05:12:11.036Z,8.85
2023-05-18T05:13:11.003Z,8.95
2023-05-18T05:14:10.996Z,9.21
2023-05-18T05:15:10.990Z,9.40
2023-05-18T05:16:11.052Z,9.47
2023-05-18T05:17:10.987Z,9.76
2023-05-18T05:18:11.021Z,9.94
2023-05-18T05:19:11.010Z,10.12
2023-05-18T05:20:10.956Z,10.40
2023-05-18T05:21:10.959Z,10.92
2023-05-18T05:22:10.928Z,11.05
2023-05-18T05:23:10.980Z,11.23
2023-05-18T05:24:10.911Z,11.37
2023-05-18T05:25:10.900Z,11.65
2023-05-18T05:26:10.924Z,12.06
2023-05-18T05:27:10.889Z,12.42
2023-05-18T05:28:10.883Z,12.40
2023-05-18T05:29:11.048Z,12.31
2023-05-18T05:30:10.888Z,12.55
2023-05-18T05:31:10.942Z,12.78
2023-05-18T05:32:10.849Z,13.23
2023-05-18T05:33:10.854Z,13.39
2023-05-18T05:34:10.824Z,13.72
2023-05-18T05:35:10.854Z,13.93
2023-05-18T05:36:10.815Z,14.12
2023-05-18T05:37:10.807Z,14.08
2023-05-18T05:38:10.798Z,14.22
2023-05-18T05:39:10.797Z,14.20
2023-05-18T05:40:10.802Z,14.60
2023-05-18T05:41:10.785Z,14.73
2023-05-18T05:42:10.765Z,14.70
2023-05-18T05:43:10.760Z,14.84
2023-05-18T05:44:10.807Z,15.18
2023-05-18T05:45:10.745Z,15.37
2023-05-18T05:46:10.737Z,15.40
2023-05-18T05:47:10.836Z,15.95
2023-05-18T05:48:13.273Z,16.39
2023-05-18T05:49:10.742Z,16.29
2023-05-18T05:50:10.721Z,16.39
2023-05-18T05:51:10.697Z,16.51
2023-05-18T05:52:10.704Z,16.71
2023-05-18T05:53:10.709Z,16.53
2023-05-18T05:54:10.856Z,16.54
2023-05-18T05:55:11.679Z,16.69
2023-05-18T05:56:10.664Z,16.56
2023-05-18T05:57:10.674Z,16.61
2023-05-18T05:58:10.702Z,16.47
2023-05-18T05:59:10.646Z,16.78
2023-05-18T06:00:10.630Z,17.15
2023-05-18T06:01:10.666Z,17.27
2023-05-18T06:02:10.658Z,17.42
2023-05-18T06:03:10.704Z,18.05
2023-05-18T06:04:10.755Z,18.66
2023-05-18T06:05:10.606Z,18.58
2023-05-18T06:06:10.584Z,17.98
2023-05-18T06:07:10.614Z,17.27
2023-05-18T06:08:10.611Z,16.64
2023-05-18T06:09:10.564Z,16.17
2023-05-18T06:10:10.557Z,16.00
2023-05-18T06:11:11.494Z,15.77
2023-05-18T06:12:11.568Z,15.68
2023-05-18T06:13:10.530Z,15.57
2023-05-18T06:14:10.530Z,14.85
2023-05-18T06:15:10.520Z,14.62
2023-05-18T06:16:10.557Z,14.58
2023-05-18T06:17:10.541Z,14.66
2023-05-18T06:18:12.182Z,14.85
2023-05-18T06:19:10.525Z,14.85
2023-05-18T06:20:10.487Z,14.81
2023-05-18T06:21:10.510Z,14.20
2023-05-18T06:22:10.488Z,13.78
2023-05-18T06:23:10.461Z,13.50
2023-05-18T06:24:10.514Z,13.30
2023-05-18T06:25:10.446Z,12.97
2023-05-18T06:26:10.466Z,12.95
2023-05-18T06:27:10.431Z,13.03
2023-05-18T06:28:10.431Z,13.31
2023-05-18T06:29:10.416Z,13.22
2023-05-18T06:30:10.412Z,13.31
2023-05-18T06:31:10.434Z,13.57
2023-05-18T06:32:10.416Z,13.01
2023-05-18T06:33:10.417Z,13.00
2023-05-18T06:34:10.380Z,12.87
2023-05-18T06:35:10.394Z,12.95
2023-05-18T06:36:10.390Z,12.85
2023-05-18T06:37:10.357Z,12.80
2023-05-18T06:38:10.351Z,12.76
2023-05-18T06:39:10.342Z,12.95
2023-05-18T06:40:10.367Z,13.04
2023-05-18T06:41:10.361Z,13.41
2023-05-18T06:42:10.331Z,13.52
2023-05-18T06:43:10.315Z,13.63
2023-05-18T06:44:10.311Z,13.72
2023-05-18T06:45:10.324Z,13.74
2023-05-18T06:46:10.377Z,13.74
2023-05-18T06:47:10.292Z,13.70
2023-05-18T06:48:10.382Z,13.37
2023-05-18T06:49:10.263Z,13.28
2023-05-18T06:50:10.281Z,13.39
2023-05-18T06:51:10.254Z,13.25
2023-05-18T06:52:10.250Z,13.23
2023-05-18T06:53:10.235Z,13.57
2023-05-18T06:54:10.250Z,13.70
2023-05-18T06:55:10.244Z,14.00
2023-05-18T06:56:10.213Z,14.36
2023-05-18T06:57:10.229Z,14.30
2023-05-18T06:58:10.196Z,14.08
2023-05-18T06:59:10.237Z,13.90
2023-05-18T07:00:10.180Z,14.22
2023-05-18T07:01:10.219Z,14.73
2023-05-18T07:02:10.161Z,14.60
2023-05-18T07:03:10.230Z,14.33
2023-05-18T07:04:10.217Z,14.44
2023-05-18T07:05:10.166Z,14.55
2023-05-18T07:06:10.130Z,14.32
2023-05-18T07:07:10.120Z,14.47
2023-05-18T07:08:10.188Z,14.54
2023-05-18T07:09:10.135Z,14.94
2023-05-18T07:10:10.104Z,14.84
2023-05-18T07:11:10.088Z,14.59
2023-05-18T07:12:10.083Z,14.54
2023-05-18T07:13:10.077Z,14.37
2023-05-18T07:14:10.091Z,14.72
2023-05-18T07:15:10.056Z,14.47
2023-05-18T07:16:10.101Z,14.48
2023-05-18T07:17:10.049Z,14.55
2023-05-18T07:18:10.135Z,14.84
2023-05-18T07:19:10.112Z,15.09
2023-05-18T07:20:10.030Z,15.27
2023-05-18T07:21:10.024Z,15.57
2023-05-18T07:22:10.013Z,15.46
2023-05-18T07:23:10.026Z,14.96
2023-05-18T07:24:09.987Z,15.35
2023-05-18T07:25:09.981Z,15.37
2023-05-18T07:26:09.968Z,15.52
2023-05-18T07:27:09.967Z,15.79
2023-05-18T07:28:09.982Z,16.00
2023-05-18T07:29:09.978Z,16.09
2023-05-18T07:30:09.948Z,15.91
2023-05-18T07:31:09.958Z,15.64
2023-05-18T07:32:09.924Z,15.80
2023-05-18T07:33:09.999Z,15.31
2023-05-18T07:34:09.918Z,15.17
2023-05-18T07:35:09.919Z,15.06
2023-05-18T07:36:09.903Z,15.31
2023-05-18T07:37:09.898Z,15.65
2023-05-18T07:38:09.897Z,15.70
2023-05-18T07:39:10.872Z,15.75
2023-05-18T07:40:09.878Z,15.59
2023-05-18T07:41:09.860Z,15.22
2023-05-18T07:42:09.852Z,15.02
2023-05-18T07:43:09.865Z,15.55
2023-05-18T07:44:09.839Z,15.98
2023-05-18T07:45:09.824Z,16.41
2023-05-18T07:46:09.862Z,16.21
2023-05-18T07:47:09.898Z,16.20
2023-05-18T07:48:09.886Z,15.97
2023-05-18T07:49:09.797Z,16.15
2023-05-18T07:50:09.787Z,16.72
2023-05-18T07:51:09.790Z,17.02
2023-05-18T07:52:09.811Z,17.15
2023-05-18T07:53:09.781Z,16.91
2023-05-18T07:54:09.769Z,16.53
2023-05-18T07:55:09.764Z,16.93
2023-05-18T07:56:09.745Z,16.01
2023-05-18T07:57:09.771Z,15.97
2023-05-18T07:58:09.729Z,15.95
2023-05-18T07:59:09.729Z,15.61
2023-05-18T08:00:09.709Z,15.04
2023-05-18T08:01:09.732Z,14.70
2023-05-18T08:02:09.785Z,14.60
2023-05-18T08:03:09.744Z,14.66
2023-05-18T08:04:09.784Z,15.02
2023-05-18T08:05:09.680Z,15.03
2023-05-18T08:06:09.697Z,14.79
2023-05-18T08:07:09.686Z,14.82
2023-05-18T08:08:09.685Z,14.89
2023-05-18T08:09:09.649Z,15.25
2023-05-18T08:10:09.640Z,15.44
2023-05-18T08:11:09.653Z,15.25
2023-05-18T08:12:09.633Z,15.76
2023-05-18T08:13:09.616Z,16.10
2023-05-18T08:14:09.605Z,16.05
2023-05-18T08:15:09.637Z,16.15
2023-05-18T08:16:12.349Z,15.86
2023-05-18T08:17:10.693Z,15.79
2023-05-18T08:18:09.688Z,15.47
2023-05-18T08:19:09.602Z,15.39
2023-05-18T08:20:09.587Z,15.33
2023-05-18T08:21:09.933Z,15.35
2023-05-18T08:22:09.544Z,15.54
2023-05-18T08:23:09.549Z,15.61
2023-05-18T08:24:09.529Z,15.70
2023-05-18T08:25:09.568Z,16.60
2023-05-18T08:26:10.926Z,16.86
2023-05-18T08:27:09.506Z,17.22
2023-05-18T08:28:09.516Z,16.57
2023-05-18T08:29:09.543Z,15.84
2023-05-18T08:30:09.505Z,15.70
2023-05-18T08:31:09.467Z,15.94
2023-05-18T08:32:09.538Z,16.23
2023-05-18T08:33:09.554Z,16.74
2023-05-18T08:34:09.476Z,16.74
2023-05-18T08:35:09.474Z,16.56
2023-05-18T08:36:09.447Z,16.41
2023-05-18T08:37:09.422Z,16.13
2023-05-18T08:38:09.430Z,15.77
2023-05-18T08:39:09.492Z,15.33
2023-05-18T08:40:09.415Z,15.25
2023-05-18T08:41:09.399Z,15.21
2023-05-18T08:42:09.390Z,15.37
2023-05-18T08:43:09.382Z,15.39
2023-05-18T08:44:09.403Z,15.24
2023-05-18T08:45:09.366Z,14.86
2023-05-18T08:46:09.355Z,15.17
2023-05-18T08:47:09.355Z,15.51
2023-05-18T08:48:09.473Z,15.54
2023-05-18T08:49:09.371Z,15.27
2023-05-18T08:50:09.326Z,15.18
2023-05-18T08:51:09.328Z,15.40
2023-05-18T08:52:09.329Z,15.37
2023-05-18T08:53:09.330Z,15.36
2023-05-18T08:54:09.308Z,15.18
2023-05-18T08:55:12.006Z,15.00
2023-05-18T08:56:10.281Z,15.17
2023-05-18T08:57:09.307Z,14.85
2023-05-18T08:58:09.324Z,15.22
2023-05-18T08:59:09.256Z,15.15
2023-05-18T09:00:09.247Z,14.94
2023-05-18T09:01:09.263Z,14.88
2023-05-18T09:02:09.311Z,15.28
2023-05-18T09:03:09.335Z,15.17
2023-05-18T09:04:09.220Z,15.14
2023-05-18T09:05:09.263Z,15.21
2023-05-18T09:06:09.201Z,15.37
2023-05-18T09:07:09.224Z,15.77
2023-05-18T09:08:09.189Z,16.35
2023-05-18T09:09:09.182Z,16.53
2023-05-18T09:10:09.187Z,16.23
2023-05-18T09:11:09.172Z,16.21
2023-05-18T09:12:09.188Z,16.16
2023-05-18T09:13:09.173Z,16.46
2023-05-18T09:14:09.158Z,16.61
2023-05-18T09:15:09.141Z,16.35
2023-05-18T09:16:09.179Z,15.94
2023-05-18T09:17:09.148Z,15.68
2023-05-18T09:18:09.189Z,15.80
2023-05-18T09:19:09.171Z,15.72
2023-05-18T09:20:09.100Z,15.70
2023-05-18T09:21:09.117Z,15.83
2023-05-18T09:22:09.088Z,16.00
2023-05-18T09:23:09.077Z,16.09
2023-05-18T09:24:09.065Z,16.15
2023-05-18T09:25:09.069Z,16.15
2023-05-18T09:26:09.074Z,16.20
2023-05-18T09:27:09.056Z,16.26
2023-05-18T09:28:09.073Z,15.84
2023-05-18T09:29:09.037Z,15.36
2023-05-18T09:30:09.040Z,15.35
2023-05-18T09:31:09.132Z,15.44
2023-05-18T09:32:09.058Z,15.62
2023-05-18T09:33:09.154Z,15.31
2023-05-18T09:34:09.095Z,15.40
2023-05-18T09:35:09.414Z,15.29
2023-05-18T09:36:08.979Z,15.00
2023-05-18T09:37:08.971Z,15.02
2023-05-18T09:38:08.952Z,15.17
2023-05-18T09:39:08.951Z,15.27
2023-05-18T09:40:08.991Z,15.18
2023-05-18T09:41:08.935Z,15.28
2023-05-18T09:42:08.932Z,15.39
2023-05-18T09:43:08.916Z,15.42
2023-05-18T09:44:08.934Z,15.37
2023-05-18T09:45:08.924Z,15.37
2023-05-18T09:46:08.906Z,15.54
2023-05-18T09:47:08.999Z,15.47
2023-05-18T09:48:08.928Z,15.40
2023-05-18T09:49:08.898Z,15.44
2023-05-18T09:50:08.869Z,15.42
2023-05-18T09:51:08.860Z,15.10
2023-05-18T09:52:08.872Z,15.33
2023-05-18T09:53:08.849Z,15.22
2023-05-18T09:54:08.875Z,15.35
2023-05-18T09:55:08.829Z,15.57
2023-05-18T09:56:08.827Z,15.61
2023-05-18T09:57:11.480Z,15.84
2023-05-18T09:58:09.825Z,15.70
2023-05-18T09:59:08.837Z,15.73
2023-05-18T10:00:08.807Z,15.57
2023-05-18T10:01:08.884Z,15.49
2023-05-18T10:02:08.927Z,15.35
2023-05-18T10:03:08.843Z,15.54
2023-05-18T10:04:08.809Z,15.73
2023-05-18T10:05:08.756Z,15.79
2023-05-18T10:06:08.750Z,15.95
2023-05-18T10:07:08.740Z,15.95
2023-05-18T10:08:08.746Z,15.91
2023-05-18T10:09:09.727Z,15.94
2023-05-18T10:10:09.332Z,16.23
2023-05-18T10:11:09.703Z,16.41
2023-05-18T10:12:08.727Z,16.09
2023-05-18T10:13:08.716Z,16.17
2023-05-18T10:14:08.723Z,16.43
2023-05-18T10:15:08.666Z,16.24
2023-05-18T10:16:09.673Z,16.21
2023-05-18T10:17:15.609Z,16.23
2023-05-18T10:18:10.723Z,16.02
2023-05-18T10:19:08.721Z,15.98
2023-05-18T10:20:08.636Z,16.09
2023-05-18T10:21:08.633Z,16.26
2023-05-18T10:22:08.647Z,16.24
2023-05-18T10:23:08.618Z,16.15
2023-05-18T10:24:08.614Z,16.16
2023-05-18T10:25:08.600Z,16.26
2023-05-18T10:26:08.622Z,16.24
2023-05-18T10:27:08.613Z,16.23
2023-05-18T10:28:08.587Z,16.31
2023-05-18T10:29:08.569Z,16.50
2023-05-18T10:30:09.558Z,16.72
2023-05-18T10:31:08.620Z,16.68
2023-05-18T10:32:08.568Z,16.78
2023-05-18T10:33:20.654Z,17.16
2023-05-18T10:34:10.546Z,17.41
2023-05-18T10:35:08.524Z,17.41
2023-05-18T10:36:08.555Z,17.11
2023-05-18T10:37:11.007Z,16.97
2023-05-18T10:38:08.503Z,16.42
2023-05-18T10:39:08.494Z,16.10
2023-05-18T10:40:08.487Z,15.95
2023-05-18T10:41:08.516Z,15.82
2023-05-18T10:42:08.486Z,15.82
2023-05-18T10:43:08.462Z,15.95
2023-05-18T10:44:08.454Z,16.20
2023-05-18T10:45:08.448Z,16.42
2023-05-18T10:46:08.619Z,16.33
2023-05-18T10:47:08.545Z,16.29
2023-05-18T10:48:08.475Z,16.09
2023-05-18T10:49:08.415Z,15.98
2023-05-18T10:50:08.444Z,16.33
2023-05-18T10:51:08.439Z,16.31
2023-05-18T10:52:08.391Z,16.57
2023-05-18T10:53:08.388Z,16.47
2023-05-18T10:54:08.433Z,16.50
2023-05-18T10:55:08.400Z,16.58
2023-05-18T10:56:08.364Z,16.71
2023-05-18T10:57:08.382Z,16.54
2023-05-18T10:58:08.351Z,16.42
2023-05-18T10:59:08.334Z,16.47
2023-05-18T11:00:08.364Z,16.57
2023-05-18T11:01:08.342Z,16.78
2023-05-18T11:02:08.380Z,16.61
2023-05-18T11:03:08.329Z,16.43
2023-05-18T11:04:08.321Z,16.23
2023-05-18T11:05:08.436Z,16.23
2023-05-18T11:06:08.289Z,16.02
2023-05-18T11:07:08.277Z,16.01
2023-05-18T11:08:08.284Z,16.08
2023-05-18T11:09:08.289Z,15.97
2023-05-18T11:10:08.269Z,16.35
2023-05-18T11:11:08.276Z,16.57
2023-05-18T11:12:08.232Z,16.69
2023-05-18T11:13:08.224Z,16.78
2023-05-18T11:14:08.237Z,16.84
2023-05-18T11:15:08.248Z,16.97
2023-05-18T11:16:08.373Z,16.64
2023-05-18T11:17:08.189Z,15.88
2023-05-18T11:18:08.233Z,15.51
2023-05-18T11:19:08.228Z,15.67
2023-05-18T11:20:08.202Z,15.80
2023-05-18T11:21:08.158Z,15.70
2023-05-18T11:22:08.162Z,16.02
2023-05-18T11:23:08.152Z,16.15
2023-05-18T11:24:08.165Z,15.98
2023-05-18T11:25:08.142Z,16.01
2023-05-18T11:26:08.126Z,16.04
2023-05-18T11:27:08.117Z,16.20
2023-05-18T11:28:08.128Z,16.17
2023-05-18T11:29:08.121Z,16.32
2023-05-18T11:30:15.605Z,16.50
2023-05-18T11:31:10.088Z,16.64
2023-05-18T11:32:08.373Z,16.72
2023-05-18T11:33:09.275Z,16.61
2023-05-18T11:34:08.056Z,16.75
2023-05-18T11:35:08.052Z,17.15
2023-05-18T11:36:08.043Z,17.06
2023-05-18T11:37:08.035Z,16.93
2023-05-18T11:38:08.051Z,17.16
2023-05-18T11:39:08.019Z,17.30
2023-05-18T11:40:10.845Z,17.42
2023-05-18T11:41:09.002Z,17.39
2023-05-18T11:42:08.043Z,17.23
2023-05-18T11:43:08.021Z,17.04
2023-05-18T11:44:07.997Z,16.87
2023-05-18T11:45:08.002Z,17.15
2023-05-18T11:46:07.968Z,16.78
2023-05-18T11:47:07.991Z,16.50
2023-05-18T11:48:08.058Z,16.53
2023-05-18T11:49:08.171Z,16.42
2023-05-18T11:50:07.957Z,16.24
2023-05-18T11:51:07.938Z,16.00
2023-05-18T11:52:07.970Z,15.92
2023-05-18T11:53:07.922Z,15.82
2023-05-18T11:54:07.905Z,15.65
2023-05-18T11:55:07.927Z,15.76
2023-05-18T11:56:07.913Z,15.49
2023-05-18T11:57:07.902Z,15.40
2023-05-18T11:58:07.907Z,15.51
2023-05-18T11:59:07.865Z,15.03
2023-05-18T12:00:07.943Z,15.19
2023-05-18T12:01:07.874Z,15.37
2023-05-18T12:02:07.902Z,15.55
2023-05-18T12:03:07.920Z,15.54
2023-05-18T12:04:07.890Z,15.55
2023-05-18T12:05:07.822Z,15.40
2023-05-18T12:06:07.845Z,15.22
2023-05-18T12:07:07.829Z,15.11
2023-05-18T12:08:07.820Z,15.09
2023-05-18T12:09:40.488Z,15.10
2023-05-18T12:10:07.780Z,15.24
2023-05-18T12:11:07.794Z,15.33
2023-05-18T12:12:07.770Z,15.52
2023-05-18T12:13:07.753Z,15.67
2023-05-18T12:14:07.756Z,15.72
2023-05-18T12:15:07.742Z,15.62
2023-05-18T12:16:07.755Z,15.68
2023-05-18T12:17:07.784Z,15.64
2023-05-18T12:18:07.746Z,15.59
2023-05-18T12:19:07.762Z,15.58
2023-05-18T12:20:07.731Z,15.75
2023-05-18T12:21:07.719Z,15.59
2023-05-18T12:22:07.674Z,15.24
2023-05-18T12:23:07.696Z,15.39
2023-05-18T12:24:07.693Z,15.77
2023-05-18T12:25:07.685Z,16.10
2023-05-18T12:26:07.641Z,16.21
2023-05-18T12:27:07.850Z,16.28
2023-05-18T12:28:07.627Z,16.38
2023-05-18T12:29:07.630Z,16.39
2023-05-18T12:30:07.641Z,16.46
2023-05-18T12:31:07.646Z,16.47
2023-05-18T12:32:07.598Z,16.56
2023-05-18T12:33:07.700Z,16.54
2023-05-18T12:34:07.631Z,16.29
2023-05-18T12:35:07.599Z,16.16
2023-05-18T12:36:07.566Z,16.42
2023-05-18T12:37:07.566Z,16.43
2023-05-18T12:38:07.570Z,16.16
2023-05-18T12:39:07.599Z,16.10
2023-05-18T12:40:07.535Z,16.28
2023-05-18T12:41:07.535Z,16.05
2023-05-18T12:42:07.523Z,16.09
2023-05-18T12:43:07.520Z,16.16
2023-05-18T12:44:07.531Z,16.21
2023-05-18T12:45:08.497Z,16.05
2023-05-18T12:46:07.523Z,16.01
2023-05-18T12:47:07.497Z,16.02
2023-05-18T12:48:07.553Z,16.15
2023-05-18T12:49:07.501Z,16.12
2023-05-18T12:50:07.465Z,16.21
2023-05-18T12:51:07.452Z,16.00
2023-05-18T12:52:07.436Z,15.94
2023-05-18T12:53:07.460Z,16.00
2023-05-18T12:54:07.457Z,16.00
2023-05-18T12:55:07.427Z,15.90
2023-05-18T12:56:07.413Z,16.02
2023-05-18T12:57:07.405Z,16.16
2023-05-18T12:58:07.432Z,16.26
2023-05-18T12:59:07.382Z,16.43
2023-05-18T13:00:07.383Z,16.33
2023-05-18T13:01:07.405Z,16.50
2023-05-18T13:02:08.097Z,16.39